Time;durP1;ratioP1;P1;durP2;ratioP2;P2;SDS_P1;SDS_P2;PMS_P1;PMS_P2;Temp;Humidity;BMP_temperature;BMP_pressure;BME280_temperature;BME280_humidity;BME280_pressure;Samples;Min_cycle;Max_cycle;Signal;HPM_P1;HPM_P2
2023/03/28 00:01:05;;;;;;;0.20;0.20;;;3.10;98.00;;;;;;5108238;28;20051;-77
2023/03/28 00:03:38;;;;;;;0.20;0.20;;;3.10;98.40;;;;;;5111154;28;20031;-77
2023/03/28 00:06:17;;;;;;;0.20;0.20;;;3.00;97.60;;;;;;5108319;28;20661;-77
2023/03/28 00:08:48;;;;;;;0.60;0.60;;;3.10;99.10;;;;;;5108695;28;20027;-77
2023/03/28 00:11:18;;;;;;;0.20;0.20;;;3.10;99.90;;;;;;5090090;28;20219;-77
2023/03/28 00:13:56;;;;;;;0.20;0.20;;;3.10;96.90;;;;;;5106325;28;20020;-77
2023/03/28 00:16:30;;;;;;;0.20;0.20;;;3.10;97.40;;;;;;5089386;28;20015;-77
2023/03/28 00:18:59;;;;;;;;;;;3.00;97.60;;;;;;5109576;28;20040;-77
2023/03/28 00:21:28;;;;;;;0.20;0.20;;;3.00;98.00;;;;;;5092096;28;19904;-77
2023/03/28 00:23:56;;;;;;;0.20;0.20;;;3.00;97.60;;;;;;5111174;28;20019;-77
2023/03/28 00:26:25;;;;;;;0.13;0.13;;;3.00;97.90;;;;;;5115213;28;20028;-77
2023/03/28 00:28:52;;;;;;;0.20;0.20;;;3.00;98.10;;;;;;5116395;28;20066;-77
2023/03/28 00:31:18;;;;;;;0.28;0.28;;;2.80;96.00;;;;;;5096110;28;20023;-77
2023/03/28 00:33:48;;;;;;;0.20;0.20;;;2.80;96.40;;;;;;5114535;28;20016;-78
2023/03/28 00:36:21;;;;;;;0.20;0.20;;;2.90;98.20;;;;;;5094601;28;20677;-77
2023/03/28 00:38:48;;;;;;;0.20;0.20;;;2.90;99.90;;;;;;5092644;28;20038;-77
2023/03/28 00:41:17;;;;;;;0.20;0.20;;;2.60;99.90;;;;;;5109344;28;20700;-76
2023/03/28 00:43:45;;;;;;;0.20;0.20;;;2.90;98.70;;;;;;5094305;28;20027;-77
2023/03/28 00:46:39;;;;;;;0.20;0.20;;;2.40;99.30;;;;;;5093412;28;20116;-78
2023/03/28 00:49:22;;;;;;;0.20;0.20;;;3.00;99.40;;;;;;5088951;28;20020;-77
2023/03/28 00:51:55;;;;;;;0.20;0.20;;;2.90;99.00;;;;;;5106579;28;20030;-76
2023/03/28 00:54:24;;;;;;;0.30;0.30;;;2.80;99.90;;;;;;5103478;28;20015;-76
2023/03/28 00:56:54;;;;;;;0.20;0.20;;;2.80;99.70;;;;;;5090799;28;20031;-76
2023/03/28 00:59:24;;;;;;;0.20;0.20;;;2.80;99.90;;;;;;5104341;28;20094;-76
2023/03/28 01:01:50;;;;;;;0.20;0.20;;;2.80;99.90;;;;;;5108503;28;20020;-77
2023/03/28 01:04:21;;;;;;;0.20;0.20;;;2.80;99.90;;;;;;5083887;28;20018;-77
2023/03/28 01:06:50;;;;;;;0.20;0.20;;;2.80;99.90;;;;;;5109348;28;20027;-77
2023/03/28 01:09:18;;;;;;;0.20;0.20;;;1.90;99.90;;;;;;5105209;28;20104;-77
2023/03/28 01:11:45;;;;;;;0.13;0.13;;;2.80;99.90;;;;;;5084954;28;20024;-77
2023/03/28 01:14:15;;;;;;;0.13;0.13;;;2.80;99.90;;;;;;5101766;28;20023;-76
2023/03/28 01:16:41;;;;;;;0.20;0.20;;;2.70;99.90;;;;;;5101638;28;20023;-77
2023/03/28 01:19:35;;;;;;;0.20;0.20;;;2.70;99.90;;;;;;5084596;28;20805;-78
2023/03/28 01:22:45;;;;;;;0.10;0.10;;;2.60;99.90;;;;;;5101026;28;20019;-78
2023/03/28 01:25:40;;;;;;;0.20;0.20;;;2.60;99.90;;;;;;4998375;28;20201;-79
2023/03/28 01:28:53;;;;;;;0.20;0.20;;;2.60;99.90;;;;;;4981878;28;20033;-80
2023/03/28 01:31:56;;;;;;;0.20;0.20;;;2.60;99.90;;;;;;4902739;29;20033;-78
2023/03/28 01:34:42;;;;;;;0.20;0.20;;;2.60;99.90;;;;;;4903948;29;20087;-78
2023/03/28 01:37:31;;;;;;;0.20;0.20;;;2.60;99.90;;;;;;4904646;29;20032;-76
2023/03/28 01:40:06;;;;;;;0.20;0.20;;;2.60;99.90;;;;;;4906189;29;20063;-77
2023/03/28 01:42:59;;;;;;;0.20;0.20;;;1.90;99.90;;;;;;4905889;29;20117;-76
2023/03/28 01:45:44;;;;;;;0.20;0.20;;;2.60;99.90;;;;;;4906021;29;20045;-79
2023/03/28 01:48:28;;;;;;;0.20;0.20;;;2.60;99.90;;;;;;4904566;29;20043;-77
2023/03/28 01:51:04;;;;;;;0.20;0.20;;;2.60;99.90;;;;;;4907573;29;20095;-77
2023/03/28 01:53:53;;;;;;;0.20;0.20;;;2.60;99.90;;;;;;4905603;29;20056;-77
2023/03/28 01:56:41;;;;;;;0.20;0.20;;;2.50;99.90;;;;;;4906265;29;20570;-77
2023/03/28 01:59:48;;;;;;;0.20;0.20;;;2.50;99.90;;;;;;4909769;29;20174;-77
2023/03/28 02:02:39;;;;;;;0.20;0.20;;;2.50;99.90;;;;;;4877068;29;20056;-77
2023/03/28 02:05:09;;;;;;;0.20;0.20;;;-0.40;99.90;;;;;;4874996;29;20114;-78
2023/03/28 02:07:38;;;;;;;0.20;0.20;;;2.50;99.90;;;;;;4923256;28;20026;-77
2023/03/28 02:10:12;;;;;;;0.20;0.20;;;2.40;99.90;;;;;;4993874;28;20126;-77
2023/03/28 02:13:35;;;;;;;0.20;0.20;;;2.40;99.90;;;;;;5014063;28;20034;-76
2023/03/28 02:16:05;;;;;;;0.20;0.20;;;2.40;99.90;;;;;;4938383;29;20020;-77
2023/03/28 02:18:47;;;;;;;0.20;0.20;;;2.30;99.90;;;;;;4922736;29;20036;-78
2023/03/28 02:21:18;;;;;;;0.20;0.20;;;2.30;99.90;;;;;;4940293;29;20028;-76
2023/03/28 02:23:53;;;;;;;0.20;0.20;;;2.30;99.90;;;;;;4893907;29;20020;-77
2023/03/28 02:26:21;;;;;;;0.20;0.20;;;2.30;99.90;;;;;;4909173;29;20648;-77
2023/03/28 02:28:55;;;;;;;0.13;0.13;;;2.70;99.90;;;;;;4911861;29;20032;-77
2023/03/28 02:31:22;;;;;;;;;;;2.80;99.90;;;;;;4944145;29;20034;-76
2023/03/28 02:33:50;;;;;;;0.20;0.20;;;2.20;99.90;;;;;;5004650;28;19901;-76
2023/03/28 02:36:47;;;;;;;0.20;0.20;;;2.20;99.90;;;;;;5025814;28;20032;-76
2023/03/28 02:39:44;;;;;;;0.20;0.20;;;2.30;99.90;;;;;;5026906;28;20065;-77
2023/03/28 02:42:46;;;;;;;0.20;0.20;;;2.30;99.90;;;;;;5016667;28;20017;-77
2023/03/28 02:45:31;;;;;;;0.20;0.20;;;2.20;99.90;;;;;;5026726;28;20041;-76
2023/03/28 02:48:45;;;;;;;0.20;0.20;;;2.30;99.90;;;;;;5028111;28;20017;-77
2023/03/28 02:51:48;;;;;;;0.13;0.13;;;2.20;99.90;;;;;;4986647;28;20619;-77
2023/03/28 02:54:43;;;;;;;0.10;0.10;;;2.30;99.90;;;;;;5017871;28;20037;-77
2023/03/28 02:57:35;;;;;;;0.20;0.20;;;2.30;99.90;;;;;;5027862;28;20021;-77
2023/03/28 03:00:11;;;;;;;0.20;0.20;;;2.20;99.90;;;;;;5026389;28;20151;-77
2023/03/28 03:02:48;;;;;;;0.20;0.20;;;2.20;99.90;;;;;;5025876;28;20096;-76
2023/03/28 03:05:19;;;;;;;0.20;0.20;;;2.20;99.90;;;;;;5026207;28;20234;-76
2023/03/28 03:07:46;;;;;;;0.20;0.20;;;2.20;99.90;;;;;;5025770;28;20148;-77
2023/03/28 03:10:13;;;;;;;0.20;0.20;;;2.20;99.90;;;;;;5026204;28;20025;-77
2023/03/28 03:12:40;;;;;;;0.20;0.20;;;2.20;99.90;;;;;;5026815;28;20072;-77
2023/03/28 03:15:06;;;;;;;0.20;0.20;;;2.10;99.90;;;;;;5023633;28;20025;-76
2023/03/28 03:17:33;;;;;;;0.20;0.20;;;2.10;99.90;;;;;;5022500;28;20029;-77
2023/03/28 03:20:05;;;;;;;0.10;0.10;;;2.20;99.90;;;;;;5023106;28;20068;-76
2023/03/28 03:22:37;;;;;;;0.20;0.20;;;2.20;99.90;;;;;;5025619;28;20113;-77
2023/03/28 03:25:06;;;;;;;0.20;0.20;;;2.30;99.90;;;;;;5023673;28;20606;-77
2023/03/28 03:27:35;;;;;;;0.20;0.20;;;2.20;99.90;;;;;;5057352;28;20584;-77
2023/03/28 03:30:02;;;;;;;0.20;0.20;;;2.20;99.90;;;;;;5107313;28;20026;-77
2023/03/28 03:32:28;;;;;;;0.17;0.17;;;2.30;99.90;;;;;;5107363;28;20748;-77
2023/03/28 03:34:54;;;;;;;0.20;0.20;;;2.30;99.90;;;;;;5107923;28;20054;-77
2023/03/28 03:37:19;;;;;;;0.20;0.20;;;2.20;99.90;;;;;;5106940;28;20026;-77
2023/03/28 03:39:45;;;;;;;0.20;0.20;;;2.30;99.90;;;;;;5106304;28;20019;-76
2023/03/28 03:42:13;;;;;;;0.20;0.20;;;2.20;99.90;;;;;;5090223;28;20016;-77
2023/03/28 03:44:38;;;;;;;0.20;0.20;;;2.20;99.90;;;;;;5107277;28;20393;-76
2023/03/28 03:47:05;;;;;;;0.20;0.20;;;2.20;99.90;;;;;;5105984;28;20550;-77
2023/03/28 03:49:31;;;;;;;0.20;0.20;;;2.20;99.90;;;;;;5105248;28;20020;-77
2023/03/28 03:51:58;;;;;;;0.20;0.20;;;2.20;99.90;;;;;;5105890;28;20026;-78
2023/03/28 03:54:25;;;;;;;0.32;0.32;;;2.10;99.90;;;;;;5104004;28;20026;-77
2023/03/28 03:56:52;;;;;;;0.20;0.20;;;2.20;99.90;;;;;;5086661;28;20036;-77
2023/03/28 03:59:20;;;;;;;0.10;0.10;;;2.20;99.90;;;;;;5104609;28;20020;-78
2023/03/28 04:01:45;;;;;;;0.20;0.20;;;2.10;99.90;;;;;;5105956;28;20044;-76
2023/03/28 04:04:11;;;;;;;0.20;0.20;;;2.10;99.90;;;;;;5106385;28;20080;-76
2023/03/28 04:06:38;;;;;;;0.20;0.20;;;2.10;99.90;;;;;;5105432;28;20104;-77
2023/03/28 04:09:04;;;;;;;0.20;0.20;;;2.20;99.90;;;;;;5086466;28;20112;-76
2023/03/28 04:11:30;;;;;;;0.20;0.20;;;2.20;99.90;;;;;;5108234;28;20641;-77
2023/03/28 04:13:57;;;;;;;0.10;0.10;;;2.20;99.90;;;;;;5092935;28;20067;-76
2023/03/28 04:16:24;;;;;;;0.20;0.20;;;2.20;99.90;;;;;;5110713;28;20019;-76
2023/03/28 04:18:51;;;;;;;0.20;0.20;;;2.30;99.90;;;;;;5110255;28;20023;-76
2023/03/28 04:21:19;;;;;;;0.20;0.20;;;-0.90;99.90;;;;;;5112011;28;20019;-77
2023/03/28 04:23:47;;;;;;;0.40;0.40;;;2.00;99.90;;;;;;5091917;28;20028;-77
2023/03/28 04:26:14;;;;;;;0.20;0.20;;;1.10;99.90;;;;;;5108978;28;20023;-76
2023/03/28 04:28:40;;;;;;;0.20;0.20;;;2.00;99.90;;;;;;5106178;28;20012;-77
2023/03/28 04:31:06;;;;;;;0.10;0.10;;;1.90;99.90;;;;;;5089977;28;20026;-77
2023/03/28 04:33:32;;;;;;;0.20;0.20;;;2.00;99.90;;;;;;5111456;28;20044;-77
2023/03/28 04:36:00;;;;;;;0.20;0.20;;;2.00;99.90;;;;;;5113349;28;20019;-77
2023/03/28 04:38:31;;;;;;;0.10;0.10;;;1.90;99.90;;;;;;5095337;28;20147;-77
2023/03/28 04:40:57;;;;;;;0.20;0.20;;;1.90;99.90;;;;;;5111105;28;20062;-76
2023/03/28 04:43:27;;;;;;;0.20;0.20;;;1.90;99.90;;;;;;5087940;28;20016;-77
2023/03/28 04:45:55;;;;;;;0.20;0.20;;;1.90;99.90;;;;;;5090254;28;20039;-77
2023/03/28 04:48:22;;;;;;;0.20;0.20;;;1.80;99.90;;;;;;5114980;28;20027;-77
2023/03/28 04:50:48;;;;;;;0.20;0.20;;;1.90;99.90;;;;;;5096696;28;20019;-76
2023/03/28 04:53:15;;;;;;;0.20;0.20;;;1.90;99.90;;;;;;5090997;28;20027;-77
2023/03/28 04:55:42;;;;;;;0.20;0.20;;;1.90;99.90;;;;;;5108590;28;20050;-78
2023/03/28 04:58:08;;;;;;;0.20;0.20;;;2.00;99.90;;;;;;5084247;28;20115;-77
2023/03/28 05:00:35;;;;;;;0.20;0.20;;;1.90;99.90;;;;;;5111102;28;20055;-76
2023/03/28 05:03:04;;;;;;;0.20;0.20;;;1.90;99.90;;;;;;5092044;28;20711;-76
2023/03/28 05:05:33;;;;;;;0.20;0.20;;;1.80;99.90;;;;;;5111588;28;20066;-77
2023/03/28 05:08:09;;;;;;;0.20;0.20;;;1.80;99.90;;;;;;5111436;28;20027;-77
2023/03/28 05:10:35;;;;;;;0.20;0.20;;;1.90;99.90;;;;;;5116516;28;20021;-77
2023/03/28 05:13:01;;;;;;;0.20;0.20;;;1.80;99.90;;;;;;5106746;28;20031;-77
2023/03/28 05:15:27;;;;;;;0.20;0.20;;;1.70;99.90;;;;;;5102982;28;20023;-77
2023/03/28 05:17:55;;;;;;;0.20;0.20;;;1.70;99.90;;;;;;5104670;28;20024;-77
2023/03/28 05:20:22;;;;;;;0.20;0.20;;;-0.30;99.90;;;;;;5105518;28;20074;-77
2023/03/28 05:22:48;;;;;;;0.20;0.20;;;1.80;99.90;;;;;;5104828;28;20020;-76
2023/03/28 05:25:15;;;;;;;0.20;0.20;;;1.80;99.90;;;;;;5104425;28;20704;-76
2023/03/28 05:27:41;;;;;;;0.30;0.30;;;1.80;99.90;;;;;;5105660;28;20050;-76
2023/03/28 05:30:09;;;;;;;0.10;0.10;;;1.90;99.90;;;;;;5105743;28;20510;-76
2023/03/28 05:32:36;;;;;;;0.20;0.20;;;2.00;99.90;;;;;;5109135;28;20019;-77
2023/03/28 05:35:03;;;;;;;0.20;0.20;;;2.10;99.90;;;;;;5091281;28;20020;-76
2023/03/28 05:37:29;;;;;;;0.10;0.10;;;2.10;99.90;;;;;;5091965;28;20020;-77
2023/03/28 05:39:55;;;;;;;0.20;0.20;;;2.20;99.90;;;;;;5111102;28;20012;-76
2023/03/28 05:42:21;;;;;;;0.20;0.20;;;2.20;99.30;;;;;;5111718;28;20064;-77
2023/03/28 05:44:48;;;;;;;0.20;0.20;;;2.20;98.60;;;;;;5119704;28;20051;-76
2023/03/28 05:47:15;;;;;;;0.13;0.13;;;2.20;98.30;;;;;;5118634;28;20019;-77
2023/03/28 05:49:41;;;;;;;0.20;0.20;;;2.30;98.60;;;;;;5113374;28;20022;-77
2023/03/28 05:52:08;;;;;;;0.20;0.20;;;2.30;98.20;;;;;;5112221;28;20020;-77
2023/03/28 05:54:34;;;;;;;0.20;0.20;;;2.40;97.60;;;;;;5115157;28;20012;-77
2023/03/28 05:57:04;;;;;;;0.20;0.20;;;2.40;96.60;;;;;;5098458;28;20098;-79
2023/03/28 05:59:31;;;;;;;0.20;0.20;;;2.40;96.10;;;;;;5114367;28;20040;-78
2023/03/28 06:01:58;;;;;;;0.20;0.20;;;2.50;97.10;;;;;;5117144;28;20687;-76
2023/03/28 06:04:25;;;;;;;0.20;0.20;;;2.40;98.90;;;;;;5120149;28;20153;-77
2023/03/28 06:06:55;;;;;;;0.20;0.20;;;2.40;98.20;;;;;;5120052;28;20119;-77
2023/03/28 06:09:22;;;;;;;0.20;0.20;;;2.60;96.70;;;;;;5114084;28;20020;-76
2023/03/28 06:11:50;;;;;;;0.20;0.20;;;2.70;96.00;;;;;;5118056;28;20543;-78
2023/03/28 06:14:20;;;;;;;0.20;0.20;;;2.70;96.00;;;;;;5120268;28;20028;-76
2023/03/28 06:16:51;;;;;;;0.13;0.13;;;2.90;96.50;;;;;;5116865;28;20596;-78
2023/03/28 06:19:17;;;;;;;0.20;0.20;;;3.00;96.90;;;;;;5120143;28;20039;-78
2023/03/28 06:21:44;;;;;;;0.17;0.17;;;3.50;93.80;;;;;;5115676;28;20061;-77
2023/03/28 06:24:10;;;;;;;0.10;0.10;;;2.90;94.80;;;;;;5084098;28;20028;-77
2023/03/28 06:26:37;;;;;;;0.20;0.20;;;3.00;94.20;;;;;;5117594;28;20031;-80
2023/03/28 06:29:11;;;;;;;0.20;0.20;;;3.00;94.30;;;;;;5122452;28;20019;-82
2023/03/28 06:31:38;;;;;;;;;;;3.10;94.90;;;;;;5126671;28;20023;-78
2023/03/28 06:34:09;;;;;;;0.20;0.20;;;3.10;95.50;;;;;;5129413;28;19904;-77
2023/03/28 06:36:35;;;;;;;0.20;0.20;;;3.20;92.90;;;;;;5108271;28;20118;-77
2023/03/28 06:39:02;;;;;;;0.10;0.10;;;3.00;93.90;;;;;;5109900;28;20101;-76
2023/03/28 06:41:27;;;;;;;0.13;0.13;;;3.20;94.60;;;;;;5134579;28;20024;-76
2023/03/28 06:43:54;;;;;;;0.20;0.20;;;3.10;93.40;;;;;;5115673;28;20462;-76
2023/03/28 06:46:21;;;;;;;0.20;0.20;;;3.30;94.80;;;;;;5116020;28;20059;-77
2023/03/28 06:48:48;;;;;;;0.10;0.10;;;3.30;94.40;;;;;;5135357;28;20027;-75
2023/03/28 06:51:14;;;;;;;0.20;0.20;;;3.40;95.20;;;;;;5140380;28;20024;-76
2023/03/28 06:53:41;;;;;;;0.20;0.20;;;3.50;94.60;;;;;;5118864;28;20041;-77
2023/03/28 06:56:08;;;;;;;0.20;0.20;;;3.60;95.30;;;;;;5113593;28;20080;-76
2023/03/28 06:58:33;;;;;;;0.20;0.20;;;3.70;93.60;;;;;;5110184;28;20072;-77
2023/03/28 07:01:00;;;;;;;0.15;0.15;;;3.70;92.10;;;;;;5111209;28;20083;-76
2023/03/28 07:03:32;;;;;;;0.10;0.10;;;3.80;91.30;;;;;;5109690;28;20016;-76
2023/03/28 07:06:11;;;;;;;0.10;0.10;;;3.70;91.00;;;;;;5112488;28;20020;-77
2023/03/28 07:08:37;;;;;;;0.10;0.10;;;0.90;90.70;;;;;;5113084;28;20030;-77
2023/03/28 07:11:04;;;;;;;0.10;0.10;;;3.70;92.00;;;;;;5106082;28;20061;-77
2023/03/28 07:13:31;;;;;;;0.10;0.10;;;3.50;92.90;;;;;;5104161;28;20054;-76
2023/03/28 07:16:10;;;;;;;0.10;0.10;;;3.50;92.00;;;;;;5111913;28;20019;-77
2023/03/28 07:18:36;;;;;;;0.20;0.20;;;3.50;92.50;;;;;;5114863;28;20016;-76
2023/03/28 07:21:13;;;;;;;0.20;0.20;;;3.40;92.40;;;;;;5110767;28;20023;-77
2023/03/28 07:23:40;;;;;;;0.20;0.20;;;3.50;92.60;;;;;;5114075;28;20008;-76
2023/03/28 07:26:09;;;;;;;0.10;0.10;;;3.60;91.00;;;;;;5112119;28;20644;-77
2023/03/28 07:28:39;;;;;;;0.17;0.17;;;3.50;91.10;;;;;;5108344;28;20028;-76
2023/03/28 07:31:06;;;;;;;0.20;0.20;;;3.50;90.40;;;;;;5106504;28;20020;-77
2023/03/28 07:33:33;;;;;;;0.20;0.20;;;3.60;91.10;;;;;;5107249;28;20043;-77
2023/03/28 07:36:05;;;;;;;0.10;0.10;;;3.70;93.30;;;;;;5107902;28;20020;-77
2023/03/28 07:38:34;;;;;;;0.20;0.20;;;3.70;89.70;;;;;;5107828;28;20035;-77
2023/03/28 07:41:01;;;;;;;0.20;0.20;;;3.90;89.50;;;;;;5105580;28;20020;-77
2023/03/28 07:43:27;;;;;;;0.10;0.10;;;4.00;88.50;;;;;;5103720;28;20049;-77
2023/03/28 07:46:01;;;;;;;0.10;0.10;;;4.10;85.60;;;;;;5110727;28;20055;-77
2023/03/28 07:48:27;;;;;;;0.20;0.20;;;4.20;86.60;;;;;;5110679;28;20020;-76
2023/03/28 07:50:53;;;;;;;0.10;0.10;;;4.10;86.20;;;;;;5098699;28;20027;-76
2023/03/28 07:53:18;;;;;;;0.10;0.10;;;4.20;83.50;;;;;;5109115;28;20024;-79
2023/03/28 07:55:50;;;;;;;0.10;0.10;;;4.30;85.30;;;;;;5111982;28;20027;-78
2023/03/28 07:58:17;;;;;;;0.10;0.10;;;5.70;86.60;;;;;;5112600;28;20028;-77
2023/03/28 08:00:47;;;;;;;0.10;0.10;;;4.30;83.70;;;;;;5113751;28;20024;-79
2023/03/28 08:03:14;;;;;;;0.10;0.10;;;4.40;84.40;;;;;;5110550;28;20697;-78
2023/03/28 08:05:42;;;;;;;0.10;0.10;;;4.40;85.10;;;;;;5108992;28;20076;-78
2023/03/28 08:08:08;;;;;;;0.13;0.13;;;4.60;87.80;;;;;;5088521;28;20028;-77
2023/03/28 08:10:49;;;;;;;0.10;0.10;;;5.00;85.70;;;;;;5101330;28;20016;-77
2023/03/28 08:13:19;;;;;;;0.20;0.20;;;5.20;83.30;;;;;;5114974;28;20043;-77
2023/03/28 08:15:50;;;;;;;0.20;0.20;;;4.80;86.90;;;;;;5100559;28;20012;-77
2023/03/28 08:18:20;;;;;;;0.10;0.10;;;4.60;90.60;;;;;;5124858;28;20027;-77
2023/03/28 08:20:47;;;;;;;0.10;0.10;;;4.20;94.20;;;;;;5096373;28;20108;-76
2023/03/28 08:23:13;;;;;;;0.10;0.10;;;3.80;96.40;;;;;;5112653;28;20024;-77
2023/03/28 08:25:39;;;;;;;0.10;0.10;;;3.60;98.60;;;;;;5087898;28;20024;-77
2023/03/28 08:28:05;;;;;;;0.10;0.10;;;3.80;99.90;;;;;;5112378;28;20098;-77
2023/03/28 08:30:33;;;;;;;0.10;0.10;;;3.70;99.90;;;;;;5109637;28;20035;-78
2023/03/28 08:33:03;;;;;;;0.10;0.10;;;2.70;99.90;;;;;;5093543;28;20235;-77
2023/03/28 08:35:37;;;;;;;0.10;0.10;;;3.70;99.90;;;;;;5055421;28;20122;-78
2023/03/28 08:38:22;;;;;;;0.10;0.10;;;3.90;99.90;;;;;;5107700;28;20023;-78
2023/03/28 08:41:11;;;;;;;0.20;0.20;;;2.50;99.90;;;;;;5118378;28;20090;-78
2023/03/28 08:44:14;;;;;;;0.10;0.10;;;3.60;99.90;;;;;;5116438;28;20015;-79
2023/03/28 08:46:44;;;;;;;0.20;0.20;;;3.60;99.90;;;;;;5013840;28;20084;-77
2023/03/28 08:49:48;;;;;;;0.10;0.10;;;3.80;99.90;;;;;;4996945;28;20022;-77
2023/03/28 08:52:31;;;;;;;0.10;0.10;;;4.40;99.90;;;;;;5014022;28;20070;-77
2023/03/28 08:55:05;;;;;;;;;;;4.60;99.90;;;;;;5002703;28;20026;-78
2023/03/28 08:57:35;;;;;;;0.10;0.10;;;4.80;96.60;;;;;;5008129;28;20044;-78
2023/03/28 09:00:15;;;;;;;0.10;0.10;;;5.10;90.60;;;;;;5007861;28;20049;-77
2023/03/28 09:02:46;;;;;;;0.10;0.10;;;5.20;83.20;;;;;;5012794;28;20057;-78
2023/03/28 09:05:14;;;;;;;0.10;0.10;;;5.90;88.50;;;;;;4996172;28;20037;-77
2023/03/28 09:08:18;;;;;;;0.10;0.10;;;5.40;82.90;;;;;;5018133;28;20637;-77
2023/03/28 09:11:27;;;;;;;0.08;0.08;;;5.80;94.80;;;;;;5012475;28;20102;-78
2023/03/28 09:14:21;;;;;;;0.10;0.10;;;5.70;80.80;;;;;;4953350;29;20046;-77
2023/03/28 09:17:09;;;;;;;0.10;0.10;;;5.60;77.70;;;;;;4934109;29;20545;-78
2023/03/28 09:19:44;;;;;;;0.00;0.00;;;4.20;78.90;;;;;;4911197;29;20044;-77
2023/03/28 09:22:35;;;;;;;0.20;0.20;;;5.20;78.30;;;;;;4919894;28;20044;-77
2023/03/28 09:25:40;;;;;;;0.10;0.10;;;5.30;77.30;;;;;;4981043;28;20668;-77
2023/03/28 09:28:32;;;;;;;0.10;0.10;;;5.10;76.40;;;;;;4967158;28;20027;-78
2023/03/28 09:31:04;;;;;;;0.10;0.10;;;5.10;75.30;;;;;;4985359;28;20471;-76
2023/03/28 09:33:34;;;;;;;0.10;0.10;;;4.80;75.80;;;;;;4962799;28;20409;-76
2023/03/28 09:36:01;;;;;;;0.08;0.08;;;5.30;75.50;;;;;;4971019;28;20030;-76
2023/03/28 09:39:03;;;;;;;0.10;0.10;;;5.60;74.70;;;;;;4981353;28;20034;-75
2023/03/28 09:42:12;;;;;;;0.10;0.10;;;5.80;76.40;;;;;;4973026;28;20140;-76
2023/03/28 09:44:49;;;;;;;0.10;0.10;;;5.90;75.00;;;;;;4970848;28;20874;-77
2023/03/28 09:47:24;;;;;;;0.00;0.00;;;;;;;;;;4992530;28;20054;-77
2023/03/28 09:49:54;;;;;;;0.10;0.10;;;5.70;74.70;;;;;;4993441;28;20471;-77
2023/03/28 09:52:21;;;;;;;0.10;0.10;;;5.70;75.40;;;;;;5047821;28;20017;-77
2023/03/28 09:54:49;;;;;;;0.10;0.10;;;5.60;75.60;;;;;;5053437;28;20166;-77
2023/03/28 09:57:16;;;;;;;0.10;0.10;;;4.50;73.10;;;;;;5061385;28;20061;-77
2023/03/28 09:59:48;;;;;;;0.10;0.10;;;5.40;74.20;;;;;;5108294;28;20144;-76
2023/03/28 10:02:26;;;;;;;0.10;0.10;;;5.50;76.60;;;;;;5092896;28;20053;-78
2023/03/28 10:04:54;;;;;;;0.10;0.10;;;5.70;71.70;;;;;;5095737;28;20884;-78
2023/03/28 10:07:32;;;;;;;0.10;0.10;;;5.60;71.10;;;;;;5108975;28;20031;-77
2023/03/28 10:10:02;;;;;;;0.10;0.10;;;;;;;;;;5108115;28;20008;-77
2023/03/28 10:12:37;;;;;;;0.10;0.10;;;5.40;73.80;;;;;;5095035;28;20032;-77
2023/03/28 10:15:07;;;;;;;0.10;0.10;;;5.20;79.40;;;;;;5114236;28;20080;-78
2023/03/28 10:17:36;;;;;;;0.10;0.10;;;5.10;85.30;;;;;;5109746;28;20022;-78
2023/03/28 10:20:14;;;;;;;0.10;0.10;;;4.50;96.90;;;;;;5107957;28;20027;-78
2023/03/28 10:22:44;;;;;;;0.10;0.10;;;4.50;98.50;;;;;;5111043;28;20023;-78
2023/03/28 10:25:24;;;;;;;0.10;0.10;;;4.60;95.20;;;;;;5090607;28;20038;-78
2023/03/28 10:27:59;;;;;;;0.10;0.10;;;4.60;95.60;;;;;;5088005;28;20077;-78
2023/03/28 10:30:31;;;;;;;0.05;0.05;;;5.10;99.90;;;;;;5074332;28;20034;-78
2023/03/28 10:33:21;;;;;;;0.10;0.10;;;5.70;97.80;;;;;;5097354;28;20051;-78
2023/03/28 10:36:22;;;;;;;0.00;0.00;;;5.60;93.50;;;;;;5082628;28;20115;-78
2023/03/28 10:39:11;;;;;;;0.10;0.10;;;5.00;84.10;;;;;;5093335;28;20028;-78
2023/03/28 10:41:58;;;;;;;0.10;0.10;;;7.00;79.40;;;;;;5096903;28;20031;-77
2023/03/28 10:44:30;;;;;;;0.10;0.10;;;6.90;70.70;;;;;;5069158;28;20024;-78
2023/03/28 10:47:21;;;;;;;0.10;0.10;;;6.50;75.40;;;;;;5085165;28;20028;-78
2023/03/28 10:49:52;;;;;;;0.10;0.10;;;6.30;79.20;;;;;;5053473;28;20093;-77
2023/03/28 10:53:03;;;;;;;0.10;0.10;;;6.20;73.90;;;;;;5051272;28;20040;-78
2023/03/28 10:55:52;;;;;;;0.10;0.10;;;5.90;78.10;;;;;;5020948;28;20049;-77
2023/03/28 10:58:38;;;;;;;0.10;0.10;;;5.70;79.10;;;;;;5008699;28;20034;-78
2023/03/28 11:01:11;;;;;;;0.10;0.10;;;6.30;77.80;;;;;;5020096;28;20034;-77
2023/03/28 11:04:22;;;;;;;0.00;0.00;;;5.60;78.90;;;;;;5008793;28;20026;-77
2023/03/28 11:07:13;;;;;;;0.10;0.10;;;5.90;78.60;;;;;;4986605;28;20053;-77
2023/03/28 11:09:56;;;;;;;0.00;0.00;;;6.70;86.70;;;;;;4975950;28;20134;-76
2023/03/28 11:12:21;;;;;;;0.00;0.00;;;7.00;73.20;;;;;;4974814;28;20826;-78
2023/03/28 11:15:06;;;;;;;0.00;0.00;;;8.10;68.50;;;;;;4985440;28;20125;-77
2023/03/28 11:18:06;;;;;;;0.00;0.00;;;8.10;68.60;;;;;;4997023;28;20029;-77
2023/03/28 11:20:59;;;;;;;0.00;0.00;;;8.60;64.90;;;;;;4926750;29;20543;-79
2023/03/28 11:23:32;;;;;;;0.00;0.00;;;8.80;65.90;;;;;;4914316;29;20640;-78
2023/03/28 11:26:30;;;;;;;0.00;0.00;;;8.60;67.80;;;;;;4922824;29;20033;-78
2023/03/28 11:29:02;;;;;;;0.10;0.10;;;7.60;66.40;;;;;;4910527;29;20048;-77
2023/03/28 11:31:35;;;;;;;0.10;0.10;;;8.00;67.30;;;;;;4904123;28;20028;-78
2023/03/28 11:34:25;;;;;;;0.00;0.00;;;8.50;71.30;;;;;;4969734;28;20038;-78
2023/03/28 11:37:13;;;;;;;0.00;0.00;;;7.90;59.90;;;;;;4974718;28;20046;-79
2023/03/28 11:40:20;;;;;;;0.08;0.08;;;8.10;62.80;;;;;;4967994;28;20035;-78
2023/03/28 11:43:09;;;;;;;0.00;0.00;;;8.80;63.40;;;;;;4945250;28;20036;-77
2023/03/28 11:46:04;;;;;;;0.00;0.00;;;8.70;61.20;;;;;;4928684;29;20044;-77
2023/03/28 11:48:34;;;;;;;0.05;0.05;;;9.10;61.90;;;;;;4909262;29;20036;-78
2023/03/28 11:51:04;;;;;;;0.10;0.10;;;9.90;63.10;;;;;;4908033;29;20044;-77
2023/03/28 11:54:05;;;;;;;0.10;0.10;;;9.40;60.80;;;;;;4912655;29;20028;-78
2023/03/28 11:57:05;;;;;;;0.00;0.00;;;8.40;64.40;;;;;;4913580;28;20066;-78
2023/03/28 11:59:52;;;;;;;0.00;0.00;;;8.20;61.80;;;;;;4950281;28;20027;-77
2023/03/28 12:02:18;;;;;;;0.00;0.00;;;8.00;63.90;;;;;;4945500;29;20577;-77
2023/03/28 12:04:52;;;;;;;0.00;0.00;;;7.70;70.30;;;;;;4948042;29;20067;-79
2023/03/28 12:07:26;;;;;;;0.10;0.10;;;7.30;75.50;;;;;;4948744;29;20055;-79
2023/03/28 12:10:11;;;;;;;0.00;0.00;;;7.30;75.90;;;;;;4949857;29;20269;-79
2023/03/28 12:13:05;;;;;;;0.00;0.00;;;7.70;69.30;;;;;;4933162;29;20069;-79
2023/03/28 12:15:50;;;;;;;0.10;0.10;;;8.20;70.50;;;;;;4947162;29;20051;-77
2023/03/28 12:18:29;;;;;;;0.00;0.00;;;8.50;64.10;;;;;;4947386;28;20656;-78
2023/03/28 12:20:59;;;;;;;0.00;0.00;;;8.90;65.20;;;;;;4983598;28;20038;-78
2023/03/28 12:23:52;;;;;;;0.08;0.08;;;8.20;64.10;;;;;;4987630;28;20019;-77
2023/03/28 12:26:58;;;;;;;0.00;0.00;;;7.60;62.70;;;;;;5068666;28;20111;-78
2023/03/28 12:29:29;;;;;;;0.10;0.10;;;8.00;66.20;;;;;;5088289;28;20743;-77
2023/03/28 12:32:37;;;;;;;0.00;0.00;;;8.70;65.20;;;;;;5069843;28;20698;-76
2023/03/28 12:35:18;;;;;;;0.10;0.10;;;9.20;63.00;;;;;;5091823;28;20016;-77
2023/03/28 12:37:45;;;;;;;0.00;0.00;;;;;;;;;;5092586;28;20549;-78
2023/03/28 12:40:54;;;;;;;0.10;0.10;;;9.90;57.60;;;;;;5069636;28;20028;-77
2023/03/28 12:44:08;;;;;;;0.10;0.10;;;10.20;56.80;;;;;;5030385;28;20045;-78
2023/03/28 12:46:59;;;;;;;0.10;0.10;;;10.00;55.70;;;;;;5040599;28;20103;-78
2023/03/28 12:49:44;;;;;;;0.10;0.10;;;8.90;58.80;;;;;;5025970;28;20088;-77
2023/03/28 12:52:36;;;;;;;0.00;0.00;;;9.60;59.90;;;;;;5024548;28;20043;-77
2023/03/28 12:55:26;;;;;;;0.10;0.10;;;7.40;57.50;;;;;;5025105;28;20086;-78
2023/03/28 12:58:22;;;;;;;0.00;0.00;;;9.30;55.10;;;;;;5025150;28;20068;-77
2023/03/28 13:01:12;;;;;;;0.10;0.10;;;10.00;55.20;;;;;;5025740;28;20055;-78
2023/03/28 13:04:05;;;;;;;0.10;0.10;;;10.70;56.90;;;;;;5022484;28;20029;-78
2023/03/28 13:07:12;;;;;;;0.10;0.10;;;11.50;54.30;;;;;;5024867;28;20029;-78
2023/03/28 13:10:05;;;;;;;0.10;0.10;;;13.70;54.20;;;;;;5025837;28;20059;-78
2023/03/28 13:12:51;;;;;;;0.10;0.10;;;9.10;53.60;;;;;;5042613;28;20025;-78
2023/03/28 13:15:20;;;;;;;0.10;0.10;;;9.60;54.00;;;;;;5074876;28;20040;-78
2023/03/28 13:18:23;;;;;;;0.00;0.00;;;6.50;53.90;;;;;;5084381;28;20023;-77
2023/03/28 13:20:51;;;;;;;0.00;0.00;;;8.20;58.40;;;;;;5087268;28;20040;-76
2023/03/28 13:23:21;;;;;;;0.00;0.00;;;6.70;67.10;;;;;;5088703;28;20109;-77
2023/03/28 13:26:15;;;;;;;0.10;0.10;;;6.70;67.70;;;;;;5088357;28;20032;-77
2023/03/28 13:28:49;;;;;;;0.00;0.00;;;6.00;73.10;;;;;;5070022;28;20074;-77
2023/03/28 13:31:31;;;;;;;0.08;0.08;;;5.70;75.20;;;;;;5089043;28;20542;-77
2023/03/28 13:34:02;;;;;;;0.10;0.10;;;8.40;79.00;;;;;;5065514;28;20123;-77
2023/03/28 13:36:35;;;;;;;0.10;0.10;;;4.80;82.50;;;;;;5087835;28;20023;-77
2023/03/28 13:39:07;;;;;;;0.10;0.10;;;5.20;89.30;;;;;;5072580;28;20012;-78
2023/03/28 13:41:41;;;;;;;0.10;0.10;;;3.90;89.10;;;;;;5095093;28;20026;-78
2023/03/28 13:44:15;;;;;;;0.00;0.00;;;7.20;87.70;;;;;;5095526;28;20024;-78